createdAt,value
2023-05-05T00:02:25.486Z,14.77
2023-05-05T00:07:28.353Z,10.68
2023-05-05T00:12:31.288Z,6.57
2023-05-05T00:17:35.522Z,11.05
2023-05-05T00:22:38.215Z,17.35
2023-05-05T00:27:41.078Z,10.50
2023-05-05T00:32:45.243Z,8.88
2023-05-05T00:37:49.166Z,14.95
2023-05-05T00:42:52.422Z,13.85
2023-05-05T00:48:00.154Z,10.80
2023-05-05T00:53:04.559Z,11.10
2023-05-05T00:58:07.645Z,9.13
2023-05-05T01:03:12.981Z,11.80
2023-05-05T01:08:42.639Z,7.57
2023-05-05T01:13:53.740Z,10.32
2023-05-05T01:19:08.342Z,6.00
2023-05-05T01:24:28.165Z,9.35
2023-05-05T01:29:56.271Z,8.55
2023-05-05T01:35:03.595Z,12.55
2023-05-05T01:40:10.640Z,13.30
2023-05-05T01:45:15.681Z,11.70
2023-05-05T01:50:20.620Z,15.07
2023-05-05T01:55:27.299Z,8.40
2023-05-05T02:00:31.805Z,13.38
2023-05-05T02:05:38.736Z,8.60
2023-05-05T02:10:42.797Z,10.63
2023-05-05T02:15:46.566Z,5.90
2023-05-05T02:20:50.764Z,7.38
2023-05-05T02:25:57.058Z,9.23
2023-05-05T02:31:01.800Z,19.55
2023-05-05T02:36:14.339Z,12.30
2023-05-05T02:41:28.164Z,5.85
2023-05-05T02:46:32.336Z,7.28
2023-05-05T02:51:36.519Z,9.05
2023-05-05T02:56:49.926Z,10.32
2023-05-05T03:02:02.086Z,9.95
2023-05-05T03:07:14.121Z,8.57
2023-05-05T03:12:23.433Z,11.85
2023-05-05T03:17:36.786Z,9.20
2023-05-05T03:22:41.733Z,11.20
2023-05-05T03:27:48.415Z,12.48
2023-05-05T03:32:55.192Z,10.90
2023-05-05T03:37:59.930Z,22.50
2023-05-05T03:43:03.086Z,16.60
2023-05-05T03:48:06.988Z,15.98
2023-05-05T03:53:11.473Z,9.13
2023-05-05T03:58:14.720Z,16.05
2023-05-05T04:03:18.817Z,11.07
2023-05-05T04:08:23.595Z,10.80
2023-05-05T04:13:26.818Z,8.52
2023-05-05T04:18:31.282Z,14.27
2023-05-05T04:23:35.968Z,8.07
2023-05-05T04:28:39.134Z,8.80
2023-05-05T04:33:42.580Z,12.15
2023-05-05T04:38:47.251Z,11.30
2023-05-05T04:43:50.184Z,13.00
2023-05-05T04:48:53.512Z,12.95
2023-05-05T04:53:58.588Z,18.73
2023-05-05T04:59:01.541Z,10.18
2023-05-05T05:04:05.235Z,11.93
2023-05-05T05:09:10.181Z,21.98
2023-05-05T05:14:12.927Z,16.75
2023-05-05T05:19:18.588Z,13.30
2023-05-05T05:24:23.216Z,11.30
2023-05-05T05:29:27.616Z,14.77
2023-05-05T05:34:32.581Z,8.60
2023-05-05T05:39:37.599Z,12.40
2023-05-05T05:44:43.392Z,7.43
2023-05-05T05:49:46.559Z,9.50
2023-05-05T05:54:51.601Z,16.13
2023-05-05T05:59:55.431Z,14.82
2023-05-05T06:04:58.963Z,13.43
2023-05-05T06:10:18.676Z,19.33
2023-05-05T06:15:29.232Z,17.02
2023-05-05T06:20:32.928Z,19.80
2023-05-05T06:25:40.553Z,10.23
2023-05-05T06:30:46.778Z,14.63
2023-05-05T06:35:49.616Z,10.15
2023-05-05T06:40:54.631Z,11.35
2023-05-05T06:45:57.394Z,13.05
2023-05-05T06:51:00.356Z,7.78
2023-05-05T06:56:04.688Z,8.70
2023-05-05T07:01:08.557Z,16.58
2023-05-05T07:06:12.473Z,10.40
2023-05-05T07:11:17.831Z,10.63
2023-05-05T07:16:22.160Z,12.50
2023-05-05T07:21:24.956Z,7.97
2023-05-05T07:26:29.439Z,16.83
2023-05-05T07:31:32.476Z,4.85
2023-05-05T07:36:36.815Z,5.85
2023-05-05T07:41:42.758Z,8.77
2023-05-05T07:46:47.154Z,12.25
2023-05-05T07:51:50.363Z,10.32
2023-05-05T07:56:54.705Z,10.32
2023-05-05T08:01:57.674Z,11.50
2023-05-05T08:07:00.413Z,9.23
2023-05-05T08:12:05.783Z,6.13
2023-05-05T08:17:08.581Z,8.75
2023-05-05T08:22:15.582Z,4.70
2023-05-05T08:27:19.738Z,8.63
2023-05-05T08:32:22.657Z,6.05
2023-05-05T08:37:26.435Z,7.88
2023-05-05T08:42:38.205Z,15.27
2023-05-05T08:47:45.032Z,10.82
2023-05-05T08:52:56.809Z,9.13
2023-05-05T08:58:04.184Z,8.93
2023-05-05T09:03:08.966Z,7.38
2023-05-05T09:08:12.945Z,10.48
2023-05-05T09:13:17.269Z,7.13
2023-05-05T09:18:20.158Z,10.48
2023-05-05T09:23:23.103Z,6.72
2023-05-05T09:28:28.169Z,4.57
2023-05-05T09:33:32.759Z,7.82
2023-05-05T09:38:35.887Z,3.33
2023-05-05T09:43:52.835Z,3.67
2023-05-05T09:48:56.531Z,6.85
2023-05-05T09:53:59.447Z,3.95
2023-05-05T09:59:10.503Z,2.17
2023-05-05T10:04:24.864Z,5.43
2023-05-05T10:09:34.024Z,4.32
2023-05-05T10:14:38.865Z,5.50
2023-05-05T10:19:43.645Z,4.82
2023-05-05T10:24:55.865Z,9.32
2023-05-05T10:30:06.691Z,7.30
2023-05-05T10:35:10.967Z,4.45
2023-05-05T10:40:15.912Z,3.60
2023-05-05T10:45:20.888Z,4.57
2023-05-05T10:50:30.793Z,4.10
2023-05-05T10:55:40.929Z,3.95
2023-05-05T11:00:52.689Z,2.88
2023-05-05T11:06:16.591Z,3.95
2023-05-05T11:11:57.746Z,4.95
2023-05-05T11:17:02.910Z,3.70
2023-05-05T11:27:13.155Z,6.30
2023-05-05T11:32:19.912Z,1.35
2023-05-05T11:37:24.629Z,3.70
2023-05-05T11:42:29.193Z,4.00
2023-05-05T11:47:33.887Z,2.65
2023-05-05T11:52:37.414Z,1.67
2023-05-05T11:57:40.144Z,2.75
2023-05-05T12:02:44.342Z,3.35
2023-05-05T12:07:48.977Z,2.03
2023-05-05T12:12:55.551Z,4.47
2023-05-05T12:18:03.432Z,1.63
2023-05-05T12:23:09.566Z,3.38
2023-05-05T12:28:12.269Z,3.97
2023-05-05T12:33:20.996Z,5.50
2023-05-05T12:38:25.155Z,2.92
2023-05-05T12:43:33.022Z,4.07
2023-05-05T12:48:40.124Z,4.63
2023-05-05T12:53:43.964Z,1.75
2023-05-05T12:58:49.656Z,3.75
2023-05-05T13:04:07.418Z,1.13
2023-05-05T13:09:13.546Z,7.72
2023-05-05T13:14:16.320Z,1.65
2023-05-05T13:19:21.083Z,1.75
2023-05-05T13:24:42.200Z,1.10
2023-05-05T13:29:50.044Z,5.75
2023-05-05T13:34:55.010Z,2.92
2023-05-05T13:39:59.314Z,3.80
2023-05-05T13:45:06.773Z,4.32
2023-05-05T13:50:14.620Z,5.68
2023-05-05T13:55:17.737Z,9.45
2023-05-05T14:00:21.432Z,7.60
2023-05-05T14:05:27.050Z,4.82
2023-05-05T14:10:31.086Z,4.32
2023-05-05T14:15:34.110Z,2.30
2023-05-05T14:20:39.221Z,5.28
2023-05-05T14:25:42.720Z,1.80
2023-05-05T14:30:46.126Z,7.72
2023-05-05T14:35:50.469Z,6.28
2023-05-05T14:40:53.263Z,10.32
2023-05-05T14:45:58.289Z,13.68
2023-05-05T14:51:04.173Z,3.67
2023-05-05T14:56:08.395Z,2.90
2023-05-05T15:01:13.594Z,4.60
2023-05-05T15:06:18.045Z,3.05
2023-05-05T15:11:23.656Z,3.83
2023-05-05T15:16:28.920Z,5.43
2023-05-05T15:21:33.551Z,3.83
2023-05-05T15:26:36.615Z,5.80
2023-05-05T15:31:41.419Z,8.73
2023-05-05T15:36:46.183Z,14.10
2023-05-05T15:41:49.723Z,3.67
2023-05-05T15:46:52.487Z,5.18
2023-05-05T15:51:57.069Z,5.07
2023-05-05T15:57:01.334Z,7.83
2023-05-05T16:02:04.356Z,2.67
2023-05-05T16:07:09.306Z,2.80
2023-05-05T16:12:12.159Z,4.90
2023-05-05T16:17:15.213Z,2.97
2023-05-05T16:22:20.963Z,2.35
2023-05-05T16:27:24.546Z,4.00
2023-05-05T16:32:27.305Z,5.30
2023-05-05T16:37:34.241Z,6.88
2023-05-05T16:42:37.849Z,2.25
2023-05-05T16:47:40.748Z,6.22
2023-05-05T16:52:45.272Z,4.25
2023-05-05T16:57:48.248Z,2.55
2023-05-05T17:02:51.104Z,5.05
2023-05-05T17:07:55.234Z,8.02
2023-05-05T17:12:58.316Z,4.20
2023-05-05T17:18:02.757Z,5.93
2023-05-05T17:23:08.721Z,5.30
2023-05-05T17:28:12.131Z,1.73
2023-05-05T17:33:18.276Z,5.80
2023-05-05T17:38:22.454Z,5.20
2023-05-05T17:43:26.771Z,8.88
2023-05-05T17:48:29.685Z,2.88
2023-05-05T17:53:35.310Z,2.58
2023-05-05T17:58:39.181Z,4.00
2023-05-05T18:03:42.136Z,3.70
2023-05-05T18:08:46.604Z,2.55
2023-05-05T18:13:49.930Z,2.40
2023-05-05T18:18:55.199Z,2.33
2023-05-05T18:24:11.646Z,9.15
2023-05-05T18:29:23.345Z,4.72
2023-05-05T18:34:29.355Z,4.45
2023-05-05T18:39:33.540Z,4.22
2023-05-05T18:44:36.357Z,2.58
2023-05-05T18:49:40.327Z,4.45
2023-05-05T18:54:46.154Z,5.10
2023-05-05T18:59:49.090Z,5.22
2023-05-05T19:04:52.486Z,5.45
2023-05-05T19:09:56.673Z,3.33
2023-05-05T19:14:59.434Z,7.10
2023-05-05T19:20:03.169Z,3.78
2023-05-05T19:25:08.196Z,2.90
2023-05-05T19:30:13.896Z,2.40
2023-05-05T19:35:16.908Z,3.97
2023-05-05T19:40:21.134Z,5.13
2023-05-05T19:45:23.950Z,4.68
2023-05-05T19:50:30.747Z,5.85
2023-05-05T19:55:35.593Z,4.03
2023-05-05T20:00:38.430Z,4.57
2023-05-05T20:05:42.048Z,2.40
2023-05-05T20:10:46.944Z,4.97
2023-05-05T20:15:49.696Z,5.20
2023-05-05T20:20:52.526Z,4.82
2023-05-05T20:25:57.395Z,3.33
2023-05-05T20:31:00.782Z,2.65
2023-05-05T20:36:03.727Z,8.95
2023-05-05T20:41:08.078Z,8.38
2023-05-05T20:46:13.215Z,2.25
2023-05-05T20:51:17.181Z,15.07
2023-05-05T20:56:21.766Z,3.72
2023-05-05T21:01:24.762Z,3.80
2023-05-05T21:06:27.590Z,2.15
2023-05-05T21:11:31.781Z,5.20
2023-05-05T21:16:34.545Z,4.00
2023-05-05T21:21:37.455Z,7.28
2023-05-05T21:26:43.475Z,5.82
2023-05-05T21:31:46.524Z,3.15
2023-05-05T21:36:49.396Z,7.35
2023-05-05T21:41:53.891Z,6.20
2023-05-05T21:46:56.730Z,2.75
2023-05-05T21:51:59.589Z,3.55
2023-05-05T21:57:04.479Z,3.50
2023-05-05T22:02:07.269Z,6.05
2023-05-05T22:07:10.282Z,5.15
2023-05-05T22:12:14.376Z,2.70
2023-05-05T22:17:17.489Z,6.35
2023-05-05T22:22:20.466Z,2.83
2023-05-05T22:27:25.213Z,2.90
2023-05-05T22:32:28.050Z,3.25
2023-05-05T22:37:30.926Z,3.60
2023-05-05T22:42:35.112Z,7.03
2023-05-05T22:47:38.412Z,8.77
2023-05-05T22:52:41.225Z,5.25
2023-05-05T22:57:45.323Z,9.70
2023-05-05T23:02:48.177Z,5.43
2023-05-05T23:07:51.128Z,3.92
2023-05-05T23:12:55.376Z,4.65
2023-05-05T23:17:58.218Z,10.57
2023-05-05T23:23:01.214Z,7.35
2023-05-05T23:28:05.885Z,6.22
2023-05-05T23:33:08.721Z,4.72
2023-05-05T23:38:11.585Z,4.55
2023-05-05T23:43:15.810Z,9.00
2023-05-05T23:48:18.556Z,7.88
2023-05-05T23:53:21.360Z,10.40
2023-05-05T23:58:25.636Z,7.57
